createdAt,value
2022-10-17T00:00:59.055Z,14.65
2022-10-17T00:03:28.100Z,10.65
2022-10-17T00:05:57.874Z,13.65
2022-10-17T00:08:26.343Z,15.15
2022-10-17T00:10:59.199Z,13.52
2022-10-17T00:13:28.113Z,12.95
2022-10-17T00:15:56.047Z,13.88
2022-10-17T00:18:24.665Z,12.70
2022-10-17T00:20:52.402Z,15.00
2022-10-17T00:23:20.106Z,15.95
2022-10-17T00:25:47.511Z,28.10
2022-10-17T00:28:15.976Z,22.17
2022-10-17T00:30:47.800Z,15.02
2022-10-17T00:33:16.154Z,15.85
2022-10-17T00:35:43.400Z,16.13
2022-10-17T00:38:10.747Z,13.30
2022-10-17T00:40:38.086Z,15.63
2022-10-17T00:43:06.635Z,19.83
2022-10-17T00:45:36.467Z,22.75
2022-10-17T00:48:09.366Z,16.25
2022-10-17T00:50:40.454Z,15.45
2022-10-17T00:53:09.648Z,14.00
2022-10-17T00:55:48.565Z,17.40
2022-10-17T00:58:16.935Z,12.65
2022-10-17T01:00:48.877Z,14.48
2022-10-17T01:03:42.112Z,12.60
2022-10-17T01:06:09.511Z,13.63
2022-10-17T01:08:37.006Z,13.65
2022-10-17T01:11:31.464Z,12.70
2022-10-17T01:14:28.160Z,14.50
2022-10-17T01:17:11.011Z,14.80
2022-10-17T01:20:15.517Z,13.93
2022-10-17T01:22:54.644Z,13.18
2022-10-17T01:25:43.147Z,13.55
2022-10-17T01:28:38.555Z,13.48
2022-10-17T01:31:16.866Z,12.77
2022-10-17T01:33:50.114Z,13.18
2022-10-17T01:36:23.461Z,14.90
2022-10-17T01:39:06.012Z,13.55
2022-10-17T01:41:42.345Z,13.80
2022-10-17T01:44:32.823Z,12.18
2022-10-17T01:49:42.302Z,13.13
2022-10-17T01:52:41.744Z,11.82
2022-10-17T01:55:17.340Z,12.27
2022-10-17T01:57:50.685Z,13.13
2022-10-17T02:00:31.086Z,13.75
2022-10-17T02:03:04.504Z,12.32
2022-10-17T02:05:36.985Z,13.45
2022-10-17T02:08:04.902Z,14.65
2022-10-17T02:10:44.672Z,13.93
2022-10-17T02:13:12.577Z,12.13
2022-10-17T02:15:58.428Z,13.45
2022-10-17T02:19:09.489Z,15.52
2022-10-17T02:24:33.314Z,15.63
2022-10-17T02:27:17.472Z,12.68
2022-10-17T02:29:49.984Z,13.80
2022-10-17T02:32:29.792Z,12.13
2022-10-17T02:35:01.992Z,11.65
2022-10-17T02:37:33.584Z,11.65
2022-10-17T02:40:03.513Z,12.70
2022-10-17T02:42:32.533Z,11.48
2022-10-17T02:45:02.478Z,13.43
2022-10-17T02:47:51.355Z,10.13
2022-10-17T02:53:10.909Z,10.85
2022-10-17T02:55:46.250Z,9.85
2022-10-17T02:58:21.582Z,9.60
2022-10-17T03:00:55.261Z,12.32
2022-10-17T03:03:30.828Z,13.27
2022-10-17T03:06:02.439Z,17.20
2022-10-17T03:08:30.453Z,11.20
2022-10-17T03:10:58.037Z,11.43
2022-10-17T03:13:30.793Z,8.68
2022-10-17T03:16:00.827Z,8.82
2022-10-17T03:18:29.438Z,10.10
2022-10-17T03:21:00.881Z,9.38
2022-10-17T03:23:29.096Z,11.98
2022-10-17T03:25:56.445Z,13.82
2022-10-17T03:28:24.422Z,12.40
2022-10-17T03:30:56.890Z,14.05
2022-10-17T03:33:25.848Z,15.68
2022-10-17T03:35:55.098Z,12.95
2022-10-17T03:38:25.167Z,14.18
2022-10-17T03:40:57.422Z,13.38
2022-10-17T03:43:25.875Z,10.45
2022-10-17T03:45:57.072Z,14.82
2022-10-17T03:48:29.009Z,11.73
2022-10-17T03:51:05.075Z,14.40
2022-10-17T03:53:34.985Z,9.40
2022-10-17T03:56:18.114Z,13.13
2022-10-17T03:58:51.959Z,11.77
2022-10-17T04:01:20.766Z,11.68
2022-10-17T04:03:54.206Z,10.55
2022-10-17T04:06:23.171Z,10.50
2022-10-17T04:08:51.214Z,10.40
2022-10-17T04:11:34.740Z,13.38
2022-10-17T04:14:05.030Z,12.43
2022-10-17T04:16:32.811Z,13.63
2022-10-17T04:19:04.086Z,13.32
2022-10-17T04:21:37.205Z,12.63
2022-10-17T04:24:07.503Z,10.82
2022-10-17T04:26:59.093Z,10.38
2022-10-17T04:29:30.053Z,11.45
2022-10-17T04:32:05.953Z,9.55
2022-10-17T04:34:40.275Z,11.85
2022-10-17T04:37:07.657Z,12.77
2022-10-17T04:39:36.433Z,11.10
2022-10-17T04:42:04.094Z,12.25
2022-10-17T04:44:33.677Z,13.35
2022-10-17T04:47:01.894Z,10.27
2022-10-17T04:49:29.412Z,12.57
2022-10-17T04:52:02.817Z,10.10
2022-10-17T04:54:42.859Z,12.73
2022-10-17T04:57:11.399Z,13.65
2022-10-17T04:59:40.627Z,12.52
2022-10-17T05:02:21.852Z,10.45
2022-10-17T05:04:49.634Z,10.50
2022-10-17T05:07:17.097Z,13.15
2022-10-17T05:09:51.594Z,17.50
2022-10-17T05:12:21.333Z,15.27
2022-10-17T05:14:49.650Z,12.05
2022-10-17T05:17:17.272Z,10.70
2022-10-17T05:19:45.015Z,12.15
2022-10-17T05:22:12.242Z,12.32
2022-10-17T05:24:40.476Z,15.10
2022-10-17T05:27:09.007Z,9.15
2022-10-17T05:29:36.423Z,10.13
2022-10-17T05:32:10.932Z,11.80
2022-10-17T05:34:39.213Z,15.63
2022-10-17T05:37:06.600Z,14.30
2022-10-17T05:39:34.865Z,12.75
2022-10-17T05:42:04.790Z,13.17
2022-10-17T05:44:33.911Z,12.25
2022-10-17T05:47:02.025Z,12.40
2022-10-17T05:49:44.713Z,11.05
2022-10-17T05:52:14.347Z,13.38
2022-10-17T05:54:54.884Z,11.20
2022-10-17T05:57:25.967Z,9.93
2022-10-17T05:59:53.624Z,10.57
2022-10-17T06:02:22.768Z,10.93
2022-10-17T06:04:51.550Z,11.07
2022-10-17T06:07:21.584Z,10.68
2022-10-17T06:09:50.015Z,17.08
2022-10-17T06:12:17.434Z,15.70
2022-10-17T06:14:45.858Z,12.05
2022-10-17T06:17:16.214Z,10.98
2022-10-17T06:19:45.206Z,12.65
2022-10-17T06:22:15.005Z,10.50
2022-10-17T06:24:42.902Z,14.20
2022-10-17T06:27:14.176Z,15.05
2022-10-17T06:29:42.574Z,12.90
2022-10-17T06:32:14.221Z,16.33
2022-10-17T06:34:45.866Z,15.25
2022-10-17T06:37:13.323Z,41.78
2022-10-17T06:39:41.946Z,71.68
2022-10-17T06:42:16.546Z,71.55
2022-10-17T06:45:07.760Z,92.47
2022-10-17T06:47:45.814Z,80.65
2022-10-17T06:50:34.334Z,64.47
2022-10-17T06:53:38.036Z,63.00
2022-10-17T06:56:28.239Z,48.95
2022-10-17T06:59:16.153Z,37.47
2022-10-17T07:01:51.807Z,40.38
2022-10-17T07:04:19.878Z,38.97
2022-10-17T07:06:47.177Z,51.17
2022-10-17T07:09:23.003Z,39.13
2022-10-17T07:11:51.736Z,33.95
2022-10-17T07:14:19.864Z,22.58
2022-10-17T07:16:51.413Z,21.97
2022-10-17T07:19:21.862Z,17.45
2022-10-17T07:21:51.730Z,16.90
2022-10-17T07:24:19.786Z,17.90
2022-10-17T07:26:52.802Z,21.90
2022-10-17T07:29:21.587Z,18.70
2022-10-17T07:32:10.858Z,23.73
2022-10-17T07:34:38.162Z,23.58
2022-10-17T07:37:07.599Z,23.35
2022-10-17T07:39:36.509Z,23.83
2022-10-17T07:42:05.035Z,20.65
2022-10-17T07:44:32.315Z,24.45
2022-10-17T07:47:00.488Z,17.85
2022-10-17T07:49:27.933Z,17.13
2022-10-17T07:51:55.334Z,29.05
2022-10-17T07:54:23.944Z,20.30
2022-10-17T07:56:51.921Z,21.02
2022-10-17T07:59:19.956Z,18.88
2022-10-17T08:01:47.443Z,17.73
2022-10-17T08:04:16.898Z,15.77
2022-10-17T08:06:44.297Z,16.83
2022-10-17T08:09:11.787Z,13.05
2022-10-17T08:11:39.185Z,14.32
2022-10-17T08:14:06.902Z,14.65
2022-10-17T08:16:34.270Z,12.25
2022-10-17T08:19:02.156Z,13.13
2022-10-17T08:21:29.693Z,13.30
2022-10-17T08:23:57.458Z,16.92
2022-10-17T08:26:24.691Z,20.98
2022-10-17T08:28:52.810Z,20.58
2022-10-17T08:31:21.822Z,20.95
2022-10-17T08:33:51.745Z,19.73
2022-10-17T08:36:21.790Z,16.75
2022-10-17T08:38:52.812Z,16.38
2022-10-17T08:41:55.747Z,15.77
2022-10-17T08:44:36.824Z,15.43
2022-10-17T08:47:09.933Z,18.45
2022-10-17T08:49:52.837Z,15.93
2022-10-17T08:52:46.542Z,22.52
2022-10-17T08:55:34.977Z,20.80
2022-10-17T08:58:02.496Z,19.23
2022-10-17T09:00:35.760Z,16.60
2022-10-17T09:03:40.511Z,15.23
2022-10-17T09:06:30.146Z,17.55
2022-10-17T09:09:27.148Z,14.23
2022-10-17T09:12:12.949Z,15.98
2022-10-17T09:15:04.734Z,14.23
2022-10-17T09:17:50.132Z,13.35
2022-10-17T09:20:31.107Z,13.45
2022-10-17T09:23:04.037Z,13.13
2022-10-17T09:25:41.724Z,17.98
2022-10-17T09:28:21.976Z,12.70
2022-10-17T09:31:01.266Z,14.20
2022-10-17T09:33:53.975Z,15.13
2022-10-17T09:36:22.940Z,11.65
2022-10-17T09:38:56.697Z,11.00
2022-10-17T09:41:44.734Z,15.23
2022-10-17T09:44:22.376Z,14.52
2022-10-17T09:47:05.338Z,13.05
2022-10-17T09:49:38.233Z,14.20
2022-10-17T09:52:28.249Z,16.00
2022-10-17T09:55:18.821Z,12.48
2022-10-17T09:58:04.730Z,10.80
2022-10-17T10:00:41.532Z,12.70
2022-10-17T10:03:24.883Z,14.40
2022-10-17T10:06:05.863Z,21.13
2022-10-17T10:08:50.199Z,13.02
2022-10-17T10:11:20.197Z,15.05
2022-10-17T10:13:50.041Z,14.82
2022-10-17T10:16:24.572Z,14.73
2022-10-17T10:18:53.252Z,10.80
2022-10-17T10:21:23.457Z,10.88
2022-10-17T10:24:00.159Z,10.57
2022-10-17T10:26:32.267Z,10.80
2022-10-17T10:29:08.175Z,10.77
2022-10-17T10:31:38.833Z,9.55
2022-10-17T10:34:22.785Z,13.80
2022-10-17T10:37:01.673Z,10.73
2022-10-17T10:39:47.713Z,12.25
2022-10-17T10:42:42.273Z,9.65
2022-10-17T10:45:29.365Z,23.00
2022-10-17T10:48:22.045Z,26.65
2022-10-17T10:51:04.666Z,11.18
2022-10-17T10:53:53.680Z,7.38
2022-10-17T10:56:49.890Z,6.68
2022-10-17T10:59:23.343Z,8.52
2022-10-17T11:01:57.320Z,7.10
2022-10-17T11:04:30.550Z,6.93
2022-10-17T11:07:10.818Z,8.07
2022-10-17T11:09:56.764Z,7.97
2022-10-17T11:12:38.384Z,9.23
2022-10-17T11:15:32.681Z,7.95
2022-10-17T11:18:07.172Z,7.93
2022-10-17T11:20:43.713Z,7.45
2022-10-17T11:23:24.528Z,8.00
2022-10-17T11:25:54.997Z,8.77
2022-10-17T11:28:25.144Z,7.32
2022-10-17T11:31:07.988Z,7.03
2022-10-17T11:33:54.973Z,6.68
2022-10-17T11:36:29.087Z,6.55
2022-10-17T11:39:09.099Z,7.30
2022-10-17T11:42:06.937Z,8.68
2022-10-17T11:44:39.569Z,7.13
2022-10-17T11:47:29.131Z,7.25
2022-10-17T11:53:28.011Z,6.32
2022-10-17T11:55:59.159Z,12.10
2022-10-17T11:58:56.539Z,6.85
2022-10-17T12:01:46.660Z,6.07
2022-10-17T12:04:25.012Z,6.22
2022-10-17T12:07:05.435Z,6.35
2022-10-17T12:09:53.156Z,5.97
2022-10-17T12:12:30.350Z,6.53
2022-10-17T12:15:27.956Z,13.45
2022-10-17T12:20:38.916Z,22.25
2022-10-17T12:23:14.702Z,11.05
2022-10-17T12:26:09.665Z,9.63
2022-10-17T12:28:45.469Z,6.90
2022-10-17T12:31:22.884Z,6.50
2022-10-17T12:34:13.751Z,6.25
2022-10-17T12:39:18.214Z,8.05
2022-10-17T12:41:46.853Z,7.22
2022-10-17T12:44:14.513Z,7.40
2022-10-17T12:46:52.475Z,7.55
2022-10-17T12:49:39.456Z,6.75
2022-10-17T12:52:23.508Z,5.68
2022-10-17T12:55:10.902Z,6.75
2022-10-17T12:57:51.209Z,5.35
2022-10-17T13:00:27.080Z,5.35
2022-10-17T13:03:03.844Z,6.22
2022-10-17T13:05:37.379Z,6.30
2022-10-17T13:08:08.317Z,5.68
2022-10-17T13:10:41.906Z,5.38
2022-10-17T13:13:19.337Z,5.72
2022-10-17T13:15:58.457Z,7.93
2022-10-17T13:18:29.947Z,8.88
2022-10-17T13:23:41.781Z,7.10
2022-10-17T13:28:43.946Z,6.28
2022-10-17T13:31:32.341Z,6.32
2022-10-17T13:34:03.084Z,7.47
2022-10-17T13:36:32.776Z,6.22
2022-10-17T13:39:12.377Z,4.93
2022-10-17T13:41:42.518Z,9.38
2022-10-17T13:44:21.753Z,9.13
2022-10-17T13:46:49.753Z,10.57
2022-10-17T13:49:40.793Z,8.40
2022-10-17T13:52:18.328Z,5.82
2022-10-17T13:54:48.647Z,6.63
2022-10-17T13:57:26.967Z,5.45
2022-10-17T13:59:58.608Z,7.40
2022-10-17T14:02:34.529Z,5.88
2022-10-17T14:05:18.367Z,6.35
2022-10-17T14:08:19.136Z,5.40
2022-10-17T14:10:47.400Z,6.75
2022-10-17T14:13:28.113Z,6.72
2022-10-17T14:16:00.653Z,4.68
2022-10-17T14:18:35.989Z,5.78
2022-10-17T14:21:34.345Z,5.88
2022-10-17T14:24:13.035Z,4.82
2022-10-17T14:26:54.296Z,6.90
2022-10-17T14:29:31.201Z,5.80
2022-10-17T14:32:18.050Z,7.05
2022-10-17T14:34:46.773Z,5.10
2022-10-17T14:37:40.789Z,6.05
2022-10-17T14:40:15.887Z,5.20
2022-10-17T14:42:43.824Z,4.88
2022-10-17T14:45:28.079Z,5.45
2022-10-17T14:48:12.658Z,6.40
2022-10-17T14:50:40.425Z,7.43
2022-10-17T14:53:21.321Z,7.30
2022-10-17T14:56:01.598Z,6.63
2022-10-17T14:58:34.475Z,7.25
2022-10-17T15:01:08.401Z,6.32
2022-10-17T15:03:38.393Z,9.38
2022-10-17T15:06:24.614Z,6.68
2022-10-17T15:08:52.045Z,5.75
2022-10-17T15:11:19.384Z,6.75
2022-10-17T15:13:46.792Z,7.30
2022-10-17T15:16:21.767Z,7.10
2022-10-17T15:18:49.726Z,7.63
2022-10-17T15:21:26.644Z,11.50
2022-10-17T15:24:05.970Z,10.32
2022-10-17T15:26:34.544Z,9.43
2022-10-17T15:29:02.372Z,9.05
2022-10-17T15:31:33.889Z,9.90
2022-10-17T15:34:02.074Z,8.93
2022-10-17T15:36:37.648Z,9.45
2022-10-17T15:39:05.569Z,10.23
2022-10-17T15:41:33.583Z,8.60
2022-10-17T15:44:01.787Z,9.35
2022-10-17T15:46:33.476Z,8.23
2022-10-17T15:49:07.750Z,9.10
2022-10-17T15:51:35.218Z,9.70
2022-10-17T15:54:02.625Z,11.18
2022-10-17T15:56:37.533Z,9.32
2022-10-17T15:59:14.101Z,10.57
2022-10-17T16:01:42.827Z,11.35
2022-10-17T16:04:13.332Z,9.98
2022-10-17T16:06:41.062Z,9.75
2022-10-17T16:09:08.785Z,10.55
2022-10-17T16:11:37.951Z,10.68
2022-10-17T16:14:14.963Z,10.23
2022-10-17T16:16:42.984Z,11.25
2022-10-17T16:19:11.604Z,12.90
2022-10-17T16:21:43.813Z,8.95
2022-10-17T16:24:12.426Z,8.85
2022-10-17T16:26:40.800Z,9.80
2022-10-17T16:29:10.294Z,10.85
2022-10-17T16:31:42.184Z,10.57
2022-10-17T16:34:13.341Z,14.13
2022-10-17T16:36:41.337Z,12.30
2022-10-17T16:39:09.039Z,12.00
2022-10-17T16:41:38.573Z,10.10
2022-10-17T16:44:08.464Z,14.18
2022-10-17T16:46:37.792Z,10.13
2022-10-17T16:49:06.371Z,14.63
2022-10-17T16:51:36.068Z,13.73
2022-10-17T16:54:04.865Z,15.37
2022-10-17T16:56:33.149Z,12.70
2022-10-17T16:59:02.025Z,11.75
2022-10-17T17:01:31.779Z,9.93
2022-10-17T17:04:10.885Z,9.88
2022-10-17T17:06:41.631Z,9.52
2022-10-17T17:09:09.999Z,9.98
2022-10-17T17:11:38.148Z,11.80
2022-10-17T17:14:07.852Z,10.20
2022-10-17T17:16:35.565Z,13.37
2022-10-17T17:19:07.981Z,8.77
2022-10-17T17:21:35.794Z,10.73
2022-10-17T17:24:04.656Z,11.40
2022-10-17T17:26:36.368Z,10.13
2022-10-17T17:29:04.605Z,10.25
2022-10-17T17:31:34.406Z,10.13
2022-10-17T17:34:02.743Z,7.82
2022-10-17T17:36:33.632Z,12.70
2022-10-17T17:39:04.435Z,11.73
2022-10-17T17:41:33.342Z,12.23
2022-10-17T17:44:02.537Z,10.32
2022-10-17T17:46:30.855Z,13.13
2022-10-17T17:48:59.513Z,12.80
2022-10-17T17:51:29.641Z,11.80
2022-10-17T17:53:59.368Z,10.73
2022-10-17T17:56:30.509Z,11.30
2022-10-17T17:59:01.398Z,10.88
2022-10-17T18:01:38.721Z,10.02
2022-10-17T18:04:08.990Z,10.85
2022-10-17T18:06:37.979Z,9.15
2022-10-17T18:09:06.356Z,10.75
2022-10-17T18:11:34.050Z,13.00
2022-10-17T18:14:08.605Z,12.63
2022-10-17T18:16:37.472Z,9.90
2022-10-17T18:19:07.224Z,8.65
2022-10-17T18:21:35.802Z,10.02
2022-10-17T18:24:05.149Z,9.45
2022-10-17T18:26:33.067Z,8.98
2022-10-17T18:29:01.141Z,10.25
2022-10-17T18:31:32.282Z,13.05
2022-10-17T18:34:01.823Z,19.58
2022-10-17T18:36:34.175Z,14.88
2022-10-17T18:39:03.432Z,13.43
2022-10-17T18:41:32.089Z,11.18
2022-10-17T18:44:00.516Z,10.02
2022-10-17T18:46:31.308Z,14.45
2022-10-17T18:48:59.678Z,13.55
2022-10-17T18:51:28.056Z,12.25
2022-10-17T18:53:59.545Z,12.50
2022-10-17T18:56:28.183Z,14.00
2022-10-17T18:58:56.549Z,11.25
2022-10-17T19:01:26.730Z,14.98
2022-10-17T19:03:57.909Z,11.68
2022-10-17T19:08:55.101Z,14.27
2022-10-17T19:11:25.179Z,11.23
2022-10-17T19:13:53.423Z,11.40
2022-10-17T19:16:24.224Z,12.07
2022-10-17T19:18:53.842Z,12.73
2022-10-17T19:21:22.406Z,13.67
2022-10-17T19:24:00.847Z,13.25
2022-10-17T19:26:30.908Z,15.88
2022-10-17T19:29:00.995Z,11.15
2022-10-17T19:31:31.715Z,11.05
2022-10-17T19:34:00.668Z,9.98
2022-10-17T19:36:33.604Z,11.55
2022-10-17T19:39:07.360Z,11.55
2022-10-17T19:41:36.531Z,9.20
2022-10-17T19:44:04.178Z,14.85
2022-10-17T19:46:34.213Z,10.13
2022-10-17T19:49:02.788Z,9.65
2022-10-17T19:51:30.983Z,11.50
2022-10-17T19:54:00.951Z,11.30
2022-10-17T19:56:33.306Z,10.77
2022-10-17T19:59:01.216Z,10.27
2022-10-17T20:01:31.754Z,11.07
2022-10-17T20:04:00.800Z,9.23
2022-10-17T20:06:29.735Z,14.20
2022-10-17T20:08:57.973Z,16.35
2022-10-17T20:11:28.002Z,13.45
2022-10-17T20:13:56.703Z,11.65
2022-10-17T20:16:29.786Z,11.70
2022-10-17T20:19:02.896Z,15.25
2022-10-17T20:21:33.305Z,14.90
2022-10-17T20:24:02.398Z,9.68
2022-10-17T20:26:39.812Z,12.77
2022-10-17T20:29:14.787Z,11.20
2022-10-17T20:31:44.005Z,12.50
2022-10-17T20:34:14.233Z,12.80
2022-10-17T20:36:42.539Z,11.95
2022-10-17T20:39:11.847Z,12.00
2022-10-17T20:41:39.765Z,11.55
2022-10-17T20:44:07.712Z,9.65
2022-10-17T20:46:37.217Z,9.48
2022-10-17T20:49:07.085Z,11.13
2022-10-17T20:51:35.711Z,11.32
2022-10-17T20:54:03.576Z,11.63
2022-10-17T20:56:34.233Z,10.70
2022-10-17T21:01:32.117Z,11.52
2022-10-17T21:04:15.927Z,11.77
2022-10-17T21:06:48.336Z,12.23
2022-10-17T21:09:15.747Z,11.32
2022-10-17T21:11:43.513Z,11.45
2022-10-17T21:14:12.200Z,13.05
2022-10-17T21:16:41.461Z,10.98
2022-10-17T21:19:11.223Z,12.65
2022-10-17T21:21:41.327Z,11.52
2022-10-17T21:24:14.359Z,12.32
2022-10-17T21:26:43.794Z,12.18
2022-10-17T21:29:12.919Z,11.65
2022-10-17T21:31:42.482Z,11.43
2022-10-17T21:34:13.133Z,12.57
2022-10-17T21:36:41.097Z,11.63
2022-10-17T21:41:41.546Z,9.40
2022-10-17T21:44:17.545Z,12.15
2022-10-17T21:46:45.956Z,12.63
2022-10-17T21:49:15.291Z,12.70
2022-10-17T21:51:44.302Z,12.20
2022-10-17T21:54:11.994Z,14.43
2022-10-17T21:56:39.670Z,12.07
2022-10-17T21:59:07.445Z,10.63
2022-10-17T22:01:40.846Z,13.40
2022-10-17T22:04:13.815Z,15.88
2022-10-17T22:06:42.840Z,13.32
2022-10-17T22:09:17.022Z,12.38
2022-10-17T22:11:49.373Z,14.80
2022-10-17T22:14:19.118Z,12.77
2022-10-17T22:16:47.545Z,13.75
2022-10-17T22:19:18.409Z,10.38
2022-10-17T22:21:45.875Z,11.75
2022-10-17T22:24:15.104Z,12.60
2022-10-17T22:26:43.210Z,11.63
2022-10-17T22:29:10.963Z,13.50
2022-10-17T22:31:39.074Z,11.45
2022-10-17T22:34:07.841Z,12.02
2022-10-17T22:36:35.955Z,11.68
2022-10-17T22:39:04.475Z,11.30
2022-10-17T22:41:32.656Z,11.55
2022-10-17T22:44:00.258Z,11.70
2022-10-17T22:46:28.573Z,16.50
2022-10-17T22:48:56.260Z,13.15
2022-10-17T22:53:57.044Z,12.68
2022-10-17T22:56:24.282Z,13.18
2022-10-17T22:58:52.100Z,11.13
2022-10-17T23:01:24.897Z,15.20
2022-10-17T23:03:53.117Z,14.00
2022-10-17T23:06:21.157Z,13.95
2022-10-17T23:08:48.822Z,10.10
2022-10-17T23:11:16.673Z,12.15
2022-10-17T23:13:44.253Z,13.88
2022-10-17T23:16:11.767Z,13.38
2022-10-17T23:18:39.871Z,12.23
2022-10-17T23:21:07.949Z,15.65
2022-10-17T23:23:35.837Z,14.65
2022-10-17T23:26:08.618Z,13.57
2022-10-17T23:28:36.249Z,16.42
2022-10-17T23:31:17.891Z,13.40
2022-10-17T23:33:47.609Z,13.32
2022-10-17T23:36:21.388Z,10.23
2022-10-17T23:38:50.200Z,14.38
2022-10-17T23:41:19.239Z,15.77
2022-10-17T23:43:46.647Z,13.20
2022-10-17T23:46:14.616Z,16.02
2022-10-17T23:48:42.047Z,15.15
2022-10-17T23:51:10.784Z,11.02
2022-10-17T23:53:39.236Z,16.85
2022-10-17T23:56:07.987Z,13.60
2022-10-17T23:58:35.899Z,12.55
